sensor_id;sensor_type;location;lat;lon;timestamp;P1;durP1;ratioP1;P2;durP2;ratioP2
48651;SDS011;34442;52.362;-1.302;2023-07-02T00:01:40;5.97;;;2.53;;
48651;SDS011;34442;52.362;-1.302;2023-07-02T00:04:06;5.90;;;2.38;;
48651;SDS011;34442;52.362;-1.302;2023-07-02T00:06:33;6.35;;;2.50;;
48651;SDS011;34442;52.362;-1.302;2023-07-02T00:09:09;7.15;;;3.42;;
48651;SDS011;34442;52.362;-1.302;2023-07-02T00:11:37;5.85;;;2.88;;
48651;SDS011;34442;52.362;-1.302;2023-07-02T00:14:04;5.72;;;3.13;;
48651;SDS011;34442;52.362;-1.302;2023-07-02T00:16:30;5.22;;;2.67;;
48651;SDS011;34442;52.362;-1.302;2023-07-02T00:19:01;4.15;;;2.15;;
48651;SDS011;34442;52.362;-1.302;2023-07-02T00:21:27;6.45;;;2.40;;
48651;SDS011;34442;52.362;-1.302;2023-07-02T00:23:53;5.00;;;2.50;;
48651;SDS011;34442;52.362;-1.302;2023-07-02T00:26:25;5.32;;;2.55;;
48651;SDS011;34442;52.362;-1.302;2023-07-02T00:28:51;7.18;;;2.63;;
48651;SDS011;34442;52.362;-1.302;2023-07-02T00:31:18;4.72;;;2.47;;
48651;SDS011;34442;52.362;-1.302;2023-07-02T00:33:44;5.90;;;2.88;;
48651;SDS011;34442;52.362;-1.302;2023-07-02T00:36:10;5.10;;;2.20;;
48651;SDS011;34442;52.362;-1.302;2023-07-02T00:38:42;4.13;;;1.90;;
48651;SDS011;34442;52.362;-1.302;2023-07-02T00:41:10;4.03;;;1.90;;
48651;SDS011;34442;52.362;-1.302;2023-07-02T00:43:36;4.68;;;2.10;;
48651;SDS011;34442;52.362;-1.302;2023-07-02T00:46:03;4.00;;;2.00;;
48651;SDS011;34442;52.362;-1.302;2023-07-02T00:48:30;5.57;;;2.38;;
48651;SDS011;34442;52.362;-1.302;2023-07-02T00:50:56;4.68;;;2.17;;
48651;SDS011;34442;52.362;-1.302;2023-07-02T00:53:22;4.30;;;2.30;;
48651;SDS011;34442;52.362;-1.302;2023-07-02T00:55:47;4.75;;;2.30;;
48651;SDS011;34442;52.362;-1.302;2023-07-02T00:58:13;4.68;;;2.25;;
48651;SDS011;34442;52.362;-1.302;2023-07-02T01:00:41;4.85;;;2.10;;
48651;SDS011;34442;52.362;-1.302;2023-07-02T01:03:07;5.18;;;2.00;;
48651;SDS011;34442;52.362;-1.302;2023-07-02T01:05:33;5.28;;;2.53;;
48651;SDS011;34442;52.362;-1.302;2023-07-02T01:08:07;5.18;;;2.40;;
48651;SDS011;34442;52.362;-1.302;2023-07-02T01:10:32;5.18;;;2.25;;
48651;SDS011;34442;52.362;-1.302;2023-07-02T01:13:00;6.10;;;2.65;;
48651;SDS011;34442;52.362;-1.302;2023-07-02T01:15:31;5.70;;;2.13;;
48651;SDS011;34442;52.362;-1.302;2023-07-02T01:17:57;4.55;;;2.42;;
48651;SDS011;34442;52.362;-1.302;2023-07-02T01:20:26;5.93;;;2.53;;
48651;SDS011;34442;52.362;-1.302;2023-07-02T01:22:55;5.95;;;2.70;;
48651;SDS011;34442;52.362;-1.302;2023-07-02T01:25:23;4.38;;;2.38;;
48651;SDS011;34442;52.362;-1.302;2023-07-02T01:27:49;5.35;;;2.70;;
48651;SDS011;34442;52.362;-1.302;2023-07-02T01:30:16;5.38;;;2.50;;
48651;SDS011;34442;52.362;-1.302;2023-07-02T01:32:45;5.25;;;2.53;;
48651;SDS011;34442;52.362;-1.302;2023-07-02T01:35:13;4.95;;;2.58;;
48651;SDS011;34442;52.362;-1.302;2023-07-02T01:37:39;5.88;;;2.72;;
48651;SDS011;34442;52.362;-1.302;2023-07-02T01:40:04;7.88;;;3.03;;
48651;SDS011;34442;52.362;-1.302;2023-07-02T01:42:33;6.30;;;2.75;;
48651;SDS011;34442;52.362;-1.302;2023-07-02T01:44:59;5.43;;;2.25;;
48651;SDS011;34442;52.362;-1.302;2023-07-02T01:47:24;5.45;;;2.38;;
48651;SDS011;34442;52.362;-1.302;2023-07-02T01:49:50;6.80;;;2.55;;
48651;SDS011;34442;52.362;-1.302;2023-07-02T01:52:16;5.97;;;2.42;;
48651;SDS011;34442;52.362;-1.302;2023-07-02T01:54:42;6.70;;;2.35;;
48651;SDS011;34442;52.362;-1.302;2023-07-02T01:57:08;6.15;;;3.03;;
48651;SDS011;34442;52.362;-1.302;2023-07-02T01:59:37;6.63;;;2.45;;
48651;SDS011;34442;52.362;-1.302;2023-07-02T02:02:02;5.97;;;2.75;;
48651;SDS011;34442;52.362;-1.302;2023-07-02T02:04:28;5.82;;;2.70;;
48651;SDS011;34442;52.362;-1.302;2023-07-02T02:06:53;6.10;;;2.70;;
48651;SDS011;34442;52.362;-1.302;2023-07-02T02:09:22;6.45;;;2.90;;
48651;SDS011;34442;52.362;-1.302;2023-07-02T02:11:50;4.60;;;2.15;;
48651;SDS011;34442;52.362;-1.302;2023-07-02T02:14:17;4.90;;;2.30;;
48651;SDS011;34442;52.362;-1.302;2023-07-02T02:16:43;5.60;;;2.65;;
48651;SDS011;34442;52.362;-1.302;2023-07-02T02:19:12;5.32;;;2.78;;
48651;SDS011;34442;52.362;-1.302;2023-07-02T02:21:40;5.70;;;2.40;;
48651;SDS011;34442;52.362;-1.302;2023-07-02T02:24:06;4.82;;;2.30;;
48651;SDS011;34442;52.362;-1.302;2023-07-02T02:26:33;5.90;;;2.45;;
48651;SDS011;34442;52.362;-1.302;2023-07-02T02:28:59;5.20;;;2.40;;
48651;SDS011;34442;52.362;-1.302;2023-07-02T02:31:26;4.68;;;2.13;;
48651;SDS011;34442;52.362;-1.302;2023-07-02T02:33:51;7.03;;;2.70;;
48651;SDS011;34442;52.362;-1.302;2023-07-02T02:36:17;4.85;;;2.10;;
48651;SDS011;34442;52.362;-1.302;2023-07-02T02:38:42;6.40;;;2.38;;
48651;SDS011;34442;52.362;-1.302;2023-07-02T02:41:08;5.13;;;2.28;;
48651;SDS011;34442;52.362;-1.302;2023-07-02T02:43:34;4.60;;;2.20;;
48651;SDS011;34442;52.362;-1.302;2023-07-02T02:45:59;5.75;;;2.85;;
48651;SDS011;34442;52.362;-1.302;2023-07-02T02:48:25;5.75;;;2.50;;
48651;SDS011;34442;52.362;-1.302;2023-07-02T02:50:51;5.82;;;2.70;;
48651;SDS011;34442;52.362;-1.302;2023-07-02T02:53:16;8.95;;;3.72;;
48651;SDS011;34442;52.362;-1.302;2023-07-02T02:55:42;5.85;;;2.75;;
48651;SDS011;34442;52.362;-1.302;2023-07-02T02:58:07;6.05;;;2.80;;
48651;SDS011;34442;52.362;-1.302;2023-07-02T03:00:33;6.75;;;3.03;;
48651;SDS011;34442;52.362;-1.302;2023-07-02T03:02:58;5.05;;;2.33;;
48651;SDS011;34442;52.362;-1.302;2023-07-02T03:05:24;5.78;;;2.58;;
48651;SDS011;34442;52.362;-1.302;2023-07-02T03:07:50;6.40;;;2.70;;
48651;SDS011;34442;52.362;-1.302;2023-07-02T03:10:16;5.88;;;2.85;;
48651;SDS011;34442;52.362;-1.302;2023-07-02T03:12:41;4.85;;;2.42;;
48651;SDS011;34442;52.362;-1.302;2023-07-02T03:15:07;5.72;;;2.80;;
48651;SDS011;34442;52.362;-1.302;2023-07-02T03:17:34;5.53;;;3.00;;
48651;SDS011;34442;52.362;-1.302;2023-07-02T03:19:59;6.10;;;2.60;;
48651;SDS011;34442;52.362;-1.302;2023-07-02T03:22:25;6.80;;;2.58;;
48651;SDS011;34442;52.362;-1.302;2023-07-02T03:24:50;5.45;;;2.45;;
48651;SDS011;34442;52.362;-1.302;2023-07-02T03:27:16;5.30;;;2.92;;
48651;SDS011;34442;52.362;-1.302;2023-07-02T03:29:41;6.82;;;2.80;;
48651;SDS011;34442;52.362;-1.302;2023-07-02T03:32:07;5.28;;;2.58;;
48651;SDS011;34442;52.362;-1.302;2023-07-02T03:34:33;7.22;;;3.30;;
48651;SDS011;34442;52.362;-1.302;2023-07-02T03:36:58;6.13;;;3.03;;
48651;SDS011;34442;52.362;-1.302;2023-07-02T03:39:24;5.22;;;2.92;;
48651;SDS011;34442;52.362;-1.302;2023-07-02T03:41:49;7.95;;;3.35;;
48651;SDS011;34442;52.362;-1.302;2023-07-02T03:44:15;6.28;;;2.88;;
48651;SDS011;34442;52.362;-1.302;2023-07-02T03:46:40;5.32;;;2.65;;
48651;SDS011;34442;52.362;-1.302;2023-07-02T03:49:05;4.57;;;2.60;;
48651;SDS011;34442;52.362;-1.302;2023-07-02T03:51:31;4.78;;;2.35;;
48651;SDS011;34442;52.362;-1.302;2023-07-02T03:53:57;7.18;;;3.33;;
48651;SDS011;34442;52.362;-1.302;2023-07-02T03:56:25;5.70;;;2.50;;
48651;SDS011;34442;52.362;-1.302;2023-07-02T03:58:51;5.45;;;2.67;;
48651;SDS011;34442;52.362;-1.302;2023-07-02T04:01:20;6.28;;;2.90;;
48651;SDS011;34442;52.362;-1.302;2023-07-02T04:03:49;4.80;;;1.90;;
48651;SDS011;34442;52.362;-1.302;2023-07-02T04:06:16;5.35;;;2.55;;
48651;SDS011;34442;52.362;-1.302;2023-07-02T04:08:42;5.40;;;2.35;;
48651;SDS011;34442;52.362;-1.302;2023-07-02T04:11:08;4.72;;;2.10;;
48651;SDS011;34442;52.362;-1.302;2023-07-02T04:13:34;3.95;;;2.00;;
48651;SDS011;34442;52.362;-1.302;2023-07-02T04:15:59;5.15;;;2.22;;
48651;SDS011;34442;52.362;-1.302;2023-07-02T04:18:25;5.68;;;2.60;;
48651;SDS011;34442;52.362;-1.302;2023-07-02T04:20:50;5.50;;;2.38;;
48651;SDS011;34442;52.362;-1.302;2023-07-02T04:23:16;4.82;;;2.30;;
48651;SDS011;34442;52.362;-1.302;2023-07-02T04:25:41;5.55;;;2.63;;
48651;SDS011;34442;52.362;-1.302;2023-07-02T04:28:07;5.78;;;2.75;;
48651;SDS011;34442;52.362;-1.302;2023-07-02T04:30:32;4.97;;;2.40;;
48651;SDS011;34442;52.362;-1.302;2023-07-02T04:32:58;4.55;;;2.20;;
48651;SDS011;34442;52.362;-1.302;2023-07-02T04:35:23;3.92;;;2.00;;
48651;SDS011;34442;52.362;-1.302;2023-07-02T04:37:49;4.80;;;2.20;;
48651;SDS011;34442;52.362;-1.302;2023-07-02T04:40:16;5.45;;;2.78;;
48651;SDS011;34442;52.362;-1.302;2023-07-02T04:42:42;4.50;;;2.10;;
48651;SDS011;34442;52.362;-1.302;2023-07-02T04:45:12;4.57;;;2.40;;
48651;SDS011;34442;52.362;-1.302;2023-07-02T04:47:40;5.10;;;2.38;;
48651;SDS011;34442;52.362;-1.302;2023-07-02T04:50:07;5.18;;;2.35;;
48651;SDS011;34442;52.362;-1.302;2023-07-02T04:52:33;4.50;;;2.40;;
48651;SDS011;34442;52.362;-1.302;2023-07-02T04:54:58;6.00;;;2.75;;
48651;SDS011;34442;52.362;-1.302;2023-07-02T04:57:24;5.88;;;2.65;;
48651;SDS011;34442;52.362;-1.302;2023-07-02T04:59:49;5.20;;;2.53;;
48651;SDS011;34442;52.362;-1.302;2023-07-02T05:02:15;4.82;;;1.90;;
48651;SDS011;34442;52.362;-1.302;2023-07-02T05:04:40;6.43;;;2.70;;
48651;SDS011;34442;52.362;-1.302;2023-07-02T05:07:06;4.13;;;1.90;;
48651;SDS011;34442;52.362;-1.302;2023-07-02T05:09:31;4.68;;;2.20;;
48651;SDS011;34442;52.362;-1.302;2023-07-02T05:11:57;5.45;;;2.40;;
48651;SDS011;34442;52.362;-1.302;2023-07-02T05:14:23;6.22;;;2.40;;
48651;SDS011;34442;52.362;-1.302;2023-07-02T05:16:51;6.18;;;2.60;;
48651;SDS011;34442;52.362;-1.302;2023-07-02T05:19:17;4.95;;;2.33;;
48651;SDS011;34442;52.362;-1.302;2023-07-02T05:21:43;5.53;;;3.33;;
48651;SDS011;34442;52.362;-1.302;2023-07-02T05:24:08;5.20;;;2.65;;
48651;SDS011;34442;52.362;-1.302;2023-07-02T05:26:37;5.18;;;2.47;;
48651;SDS011;34442;52.362;-1.302;2023-07-02T05:29:02;7.72;;;2.60;;
48651;SDS011;34442;52.362;-1.302;2023-07-02T05:31:27;4.93;;;2.20;;
48651;SDS011;34442;52.362;-1.302;2023-07-02T05:33:53;4.45;;;2.40;;
48651;SDS011;34442;52.362;-1.302;2023-07-02T05:36:20;4.47;;;2.05;;
48651;SDS011;34442;52.362;-1.302;2023-07-02T05:38:45;5.00;;;2.30;;
48651;SDS011;34442;52.362;-1.302;2023-07-02T05:41:17;4.05;;;1.73;;
48651;SDS011;34442;52.362;-1.302;2023-07-02T05:43:43;3.92;;;2.20;;
48651;SDS011;34442;52.362;-1.302;2023-07-02T05:46:09;4.68;;;2.13;;
48651;SDS011;34442;52.362;-1.302;2023-07-02T05:48:35;4.40;;;2.10;;
48651;SDS011;34442;52.362;-1.302;2023-07-02T05:51:00;4.18;;;1.92;;
48651;SDS011;34442;52.362;-1.302;2023-07-02T05:53:27;7.30;;;2.58;;
48651;SDS011;34442;52.362;-1.302;2023-07-02T05:55:58;4.82;;;2.17;;
48651;SDS011;34442;52.362;-1.302;2023-07-02T05:58:28;7.37;;;2.80;;
48651;SDS011;34442;52.362;-1.302;2023-07-02T06:00:55;6.47;;;2.80;;
48651;SDS011;34442;52.362;-1.302;2023-07-02T06:03:21;5.30;;;2.70;;
48651;SDS011;34442;52.362;-1.302;2023-07-02T06:05:47;5.75;;;2.13;;
48651;SDS011;34442;52.362;-1.302;2023-07-02T06:08:14;6.43;;;2.88;;
48651;SDS011;34442;52.362;-1.302;2023-07-02T06:10:40;5.75;;;2.30;;
48651;SDS011;34442;52.362;-1.302;2023-07-02T06:13:06;5.55;;;2.53;;
48651;SDS011;34442;52.362;-1.302;2023-07-02T06:15:32;5.50;;;2.95;;
48651;SDS011;34442;52.362;-1.302;2023-07-02T06:17:58;4.93;;;2.10;;
48651;SDS011;34442;52.362;-1.302;2023-07-02T06:20:26;4.93;;;2.22;;
48651;SDS011;34442;52.362;-1.302;2023-07-02T06:22:51;4.22;;;1.90;;
48651;SDS011;34442;52.362;-1.302;2023-07-02T06:25:19;4.85;;;1.90;;
48651;SDS011;34442;52.362;-1.302;2023-07-02T06:27:45;4.45;;;1.85;;
48651;SDS011;34442;52.362;-1.302;2023-07-02T06:30:11;6.10;;;2.38;;
48651;SDS011;34442;52.362;-1.302;2023-07-02T06:32:37;4.15;;;1.88;;
48651;SDS011;34442;52.362;-1.302;2023-07-02T06:35:03;5.00;;;1.80;;
48651;SDS011;34442;52.362;-1.302;2023-07-02T06:37:31;3.80;;;1.50;;
48651;SDS011;34442;52.362;-1.302;2023-07-02T06:39:57;4.85;;;1.88;;
48651;SDS011;34442;52.362;-1.302;2023-07-02T06:42:23;5.28;;;2.50;;
48651;SDS011;34442;52.362;-1.302;2023-07-02T06:44:49;4.30;;;2.00;;
48651;SDS011;34442;52.362;-1.302;2023-07-02T06:47:15;4.82;;;2.08;;
48651;SDS011;34442;52.362;-1.302;2023-07-02T06:49:40;4.05;;;2.20;;
48651;SDS011;34442;52.362;-1.302;2023-07-02T06:52:06;6.13;;;2.00;;
48651;SDS011;34442;52.362;-1.302;2023-07-02T06:54:31;5.15;;;2.10;;
48651;SDS011;34442;52.362;-1.302;2023-07-02T06:57:00;3.17;;;1.58;;
48651;SDS011;34442;52.362;-1.302;2023-07-02T06:59:28;3.90;;;1.90;;
48651;SDS011;34442;52.362;-1.302;2023-07-02T07:01:53;3.95;;;1.90;;
48651;SDS011;34442;52.362;-1.302;2023-07-02T07:04:19;4.03;;;1.77;;
48651;SDS011;34442;52.362;-1.302;2023-07-02T07:06:45;3.95;;;1.63;;
48651;SDS011;34442;52.362;-1.302;2023-07-02T07:09:14;5.30;;;2.28;;
48651;SDS011;34442;52.362;-1.302;2023-07-02T07:11:40;4.25;;;1.92;;
48651;SDS011;34442;52.362;-1.302;2023-07-02T07:14:09;4.95;;;1.67;;
48651;SDS011;34442;52.362;-1.302;2023-07-02T07:16:34;6.15;;;2.03;;
48651;SDS011;34442;52.362;-1.302;2023-07-02T07:19:00;6.30;;;2.10;;
48651;SDS011;34442;52.362;-1.302;2023-07-02T07:21:26;3.13;;;1.63;;
48651;SDS011;34442;52.362;-1.302;2023-07-02T07:23:51;4.53;;;1.85;;
48651;SDS011;34442;52.362;-1.302;2023-07-02T07:26:17;6.30;;;2.97;;
48651;SDS011;34442;52.362;-1.302;2023-07-02T07:28:42;5.68;;;2.20;;
48651;SDS011;34442;52.362;-1.302;2023-07-02T07:31:08;4.90;;;1.83;;
48651;SDS011;34442;52.362;-1.302;2023-07-02T07:33:34;3.88;;;2.15;;
48651;SDS011;34442;52.362;-1.302;2023-07-02T07:36:00;4.45;;;1.90;;
48651;SDS011;34442;52.362;-1.302;2023-07-02T07:38:25;4.78;;;1.77;;
48651;SDS011;34442;52.362;-1.302;2023-07-02T07:40:51;4.70;;;1.85;;
48651;SDS011;34442;52.362;-1.302;2023-07-02T07:43:16;3.70;;;1.63;;
48651;SDS011;34442;52.362;-1.302;2023-07-02T07:45:42;3.17;;;1.58;;
48651;SDS011;34442;52.362;-1.302;2023-07-02T07:48:08;4.38;;;1.70;;
48651;SDS011;34442;52.362;-1.302;2023-07-02T07:50:33;4.40;;;1.73;;
48651;SDS011;34442;52.362;-1.302;2023-07-02T07:52:59;4.60;;;2.40;;
48651;SDS011;34442;52.362;-1.302;2023-07-02T07:55:24;4.78;;;2.13;;
48651;SDS011;34442;52.362;-1.302;2023-07-02T07:57:50;4.18;;;1.90;;
48651;SDS011;34442;52.362;-1.302;2023-07-02T08:00:16;4.78;;;1.90;;
48651;SDS011;34442;52.362;-1.302;2023-07-02T08:02:45;5.40;;;2.00;;
48651;SDS011;34442;52.362;-1.302;2023-07-02T08:05:14;7.43;;;2.20;;
48651;SDS011;34442;52.362;-1.302;2023-07-02T08:07:40;5.35;;;2.38;;
48651;SDS011;34442;52.362;-1.302;2023-07-02T08:10:06;4.63;;;1.90;;
48651;SDS011;34442;52.362;-1.302;2023-07-02T08:12:33;5.53;;;1.80;;
48651;SDS011;34442;52.362;-1.302;2023-07-02T08:14:59;4.05;;;1.77;;
48651;SDS011;34442;52.362;-1.302;2023-07-02T08:17:25;3.85;;;1.70;;
48651;SDS011;34442;52.362;-1.302;2023-07-02T08:19:50;4.68;;;2.10;;
48651;SDS011;34442;52.362;-1.302;2023-07-02T08:22:16;3.60;;;1.70;;
48651;SDS011;34442;52.362;-1.302;2023-07-02T08:24:42;4.07;;;1.52;;
48651;SDS011;34442;52.362;-1.302;2023-07-02T08:27:08;6.03;;;2.28;;
48651;SDS011;34442;52.362;-1.302;2023-07-02T08:29:35;4.78;;;2.00;;
48651;SDS011;34442;52.362;-1.302;2023-07-02T08:32:01;3.92;;;1.70;;
48651;SDS011;34442;52.362;-1.302;2023-07-02T08:34:29;4.32;;;1.52;;
48651;SDS011;34442;52.362;-1.302;2023-07-02T08:36:57;3.25;;;1.55;;
48651;SDS011;34442;52.362;-1.302;2023-07-02T08:39:22;5.97;;;2.40;;
48651;SDS011;34442;52.362;-1.302;2023-07-02T08:41:51;5.82;;;2.28;;
48651;SDS011;34442;52.362;-1.302;2023-07-02T08:44:19;2.88;;;1.50;;
48651;SDS011;34442;52.362;-1.302;2023-07-02T08:46:46;4.10;;;1.70;;
48651;SDS011;34442;52.362;-1.302;2023-07-02T08:49:15;5.68;;;1.90;;
48651;SDS011;34442;52.362;-1.302;2023-07-02T08:51:45;5.70;;;1.90;;
48651;SDS011;34442;52.362;-1.302;2023-07-02T08:54:12;2.95;;;1.50;;
48651;SDS011;34442;52.362;-1.302;2023-07-02T08:56:38;3.70;;;1.85;;
48651;SDS011;34442;52.362;-1.302;2023-07-02T08:59:07;4.38;;;1.70;;
48651;SDS011;34442;52.362;-1.302;2023-07-02T09:01:44;3.17;;;1.45;;
48651;SDS011;34442;52.362;-1.302;2023-07-02T09:04:20;3.40;;;1.40;;
48651;SDS011;34442;52.362;-1.302;2023-07-02T09:06:51;4.90;;;1.70;;
48651;SDS011;34442;52.362;-1.302;2023-07-02T09:09:29;6.15;;;2.20;;
48651;SDS011;34442;52.362;-1.302;2023-07-02T09:11:54;5.32;;;1.80;;
48651;SDS011;34442;52.362;-1.302;2023-07-02T09:14:27;4.30;;;1.77;;
48651;SDS011;34442;52.362;-1.302;2023-07-02T09:17:03;3.05;;;1.70;;
48651;SDS011;34442;52.362;-1.302;2023-07-02T09:19:31;4.32;;;1.80;;
48651;SDS011;34442;52.362;-1.302;2023-07-02T09:21:57;4.13;;;1.75;;
48651;SDS011;34442;52.362;-1.302;2023-07-02T09:24:27;2.15;;;1.15;;
48651;SDS011;34442;52.362;-1.302;2023-07-02T09:27:00;5.22;;;2.20;;
48651;SDS011;34442;52.362;-1.302;2023-07-02T09:29:31;4.35;;;1.58;;
48651;SDS011;34442;52.362;-1.302;2023-07-02T09:32:00;5.07;;;1.70;;
48651;SDS011;34442;52.362;-1.302;2023-07-02T09:34:33;4.38;;;1.65;;
48651;SDS011;34442;52.362;-1.302;2023-07-02T09:37:03;5.40;;;1.50;;
48651;SDS011;34442;52.362;-1.302;2023-07-02T09:39:33;3.05;;;1.33;;
48651;SDS011;34442;52.362;-1.302;2023-07-02T09:42:01;4.47;;;1.67;;
48651;SDS011;34442;52.362;-1.302;2023-07-02T09:44:35;3.42;;;1.40;;
48651;SDS011;34442;52.362;-1.302;2023-07-02T09:47:04;3.78;;;1.63;;
48651;SDS011;34442;52.362;-1.302;2023-07-02T09:49:32;3.97;;;1.60;;
48651;SDS011;34442;52.362;-1.302;2023-07-02T09:52:03;4.32;;;1.98;;
48651;SDS011;34442;52.362;-1.302;2023-07-02T09:54:30;5.03;;;1.67;;
48651;SDS011;34442;52.362;-1.302;2023-07-02T09:56:56;5.82;;;1.90;;
48651;SDS011;34442;52.362;-1.302;2023-07-02T09:59:23;4.03;;;1.80;;
48651;SDS011;34442;52.362;-1.302;2023-07-02T10:01:52;3.80;;;1.73;;
48651;SDS011;34442;52.362;-1.302;2023-07-02T10:04:21;5.22;;;2.05;;
48651;SDS011;34442;52.362;-1.302;2023-07-02T10:06:55;5.90;;;1.88;;
48651;SDS011;34442;52.362;-1.302;2023-07-02T10:09:38;4.78;;;1.85;;
48651;SDS011;34442;52.362;-1.302;2023-07-02T10:12:24;3.50;;;1.52;;
48651;SDS011;34442;52.362;-1.302;2023-07-02T10:14:54;3.20;;;1.60;;
48651;SDS011;34442;52.362;-1.302;2023-07-02T10:17:29;3.90;;;1.40;;
48651;SDS011;34442;52.362;-1.302;2023-07-02T10:19:58;3.17;;;1.50;;
48651;SDS011;34442;52.362;-1.302;2023-07-02T10:22:25;3.20;;;1.42;;
48651;SDS011;34442;52.362;-1.302;2023-07-02T10:24:54;4.43;;;1.60;;
48651;SDS011;34442;52.362;-1.302;2023-07-02T10:27:38;3.92;;;1.52;;
48651;SDS011;34442;52.362;-1.302;2023-07-02T10:30:12;3.63;;;1.55;;
48651;SDS011;34442;52.362;-1.302;2023-07-02T10:32:38;2.95;;;1.42;;
48651;SDS011;34442;52.362;-1.302;2023-07-02T10:35:13;2.85;;;1.30;;
48651;SDS011;34442;52.362;-1.302;2023-07-02T10:37:40;4.63;;;1.55;;
48651;SDS011;34442;52.362;-1.302;2023-07-02T10:40:06;3.95;;;1.50;;
48651;SDS011;34442;52.362;-1.302;2023-07-02T10:42:44;3.25;;;1.55;;
48651;SDS011;34442;52.362;-1.302;2023-07-02T10:45:30;6.07;;;1.88;;
48651;SDS011;34442;52.362;-1.302;2023-07-02T10:47:59;3.53;;;1.20;;
48651;SDS011;34442;52.362;-1.302;2023-07-02T10:50:26;3.53;;;1.60;;
48651;SDS011;34442;52.362;-1.302;2023-07-02T10:52:52;4.68;;;1.50;;
48651;SDS011;34442;52.362;-1.302;2023-07-02T10:57:47;2.42;;;1.15;;
48651;SDS011;34442;52.362;-1.302;2023-07-02T11:00:15;5.25;;;1.42;;
48651;SDS011;34442;52.362;-1.302;2023-07-02T11:02:44;3.85;;;1.70;;
48651;SDS011;34442;52.362;-1.302;2023-07-02T11:05:10;4.63;;;1.63;;
48651;SDS011;34442;52.362;-1.302;2023-07-02T11:07:40;3.63;;;1.42;;
48651;SDS011;34442;52.362;-1.302;2023-07-02T11:10:09;3.40;;;1.27;;
48651;SDS011;34442;52.362;-1.302;2023-07-02T11:12:36;4.13;;;1.52;;
48651;SDS011;34442;52.362;-1.302;2023-07-02T11:15:09;4.88;;;1.50;;
48651;SDS011;34442;52.362;-1.302;2023-07-02T11:17:42;4.07;;;1.60;;
48651;SDS011;34442;52.362;-1.302;2023-07-02T11:20:09;4.68;;;1.60;;
48651;SDS011;34442;52.362;-1.302;2023-07-02T11:22:39;3.95;;;1.80;;
48651;SDS011;34442;52.362;-1.302;2023-07-02T11:25:11;4.07;;;1.58;;
48651;SDS011;34442;52.362;-1.302;2023-07-02T11:27:45;4.60;;;2.00;;
48651;SDS011;34442;52.362;-1.302;2023-07-02T11:30:11;5.20;;;1.90;;
48651;SDS011;34442;52.362;-1.302;2023-07-02T11:32:50;3.83;;;1.65;;
48651;SDS011;34442;52.362;-1.302;2023-07-02T11:35:17;3.80;;;1.58;;
48651;SDS011;34442;52.362;-1.302;2023-07-02T11:37:44;4.28;;;1.88;;
48651;SDS011;34442;52.362;-1.302;2023-07-02T11:40:11;3.17;;;1.20;;
48651;SDS011;34442;52.362;-1.302;2023-07-02T11:42:38;6.18;;;1.83;;
48651;SDS011;34442;52.362;-1.302;2023-07-02T11:45:04;4.70;;;1.45;;
48651;SDS011;34442;52.362;-1.302;2023-07-02T11:47:30;3.33;;;1.77;;
48651;SDS011;34442;52.362;-1.302;2023-07-02T11:49:56;3.40;;;1.35;;
48651;SDS011;34442;52.362;-1.302;2023-07-02T11:52:24;4.43;;;1.15;;
48651;SDS011;34442;52.362;-1.302;2023-07-02T11:54:50;4.45;;;1.35;;
48651;SDS011;34442;52.362;-1.302;2023-07-02T11:57:16;3.65;;;1.50;;
48651;SDS011;34442;52.362;-1.302;2023-07-02T11:59:42;4.15;;;1.88;;
48651;SDS011;34442;52.362;-1.302;2023-07-02T12:02:08;2.55;;;1.38;;
48651;SDS011;34442;52.362;-1.302;2023-07-02T12:04:33;2.95;;;1.30;;
48651;SDS011;34442;52.362;-1.302;2023-07-02T12:06:59;3.78;;;1.27;;
48651;SDS011;34442;52.362;-1.302;2023-07-02T12:09:28;4.20;;;1.33;;
48651;SDS011;34442;52.362;-1.302;2023-07-02T12:11:54;3.83;;;1.30;;
48651;SDS011;34442;52.362;-1.302;2023-07-02T12:14:20;2.92;;;1.10;;
48651;SDS011;34442;52.362;-1.302;2023-07-02T12:16:45;3.28;;;1.42;;
48651;SDS011;34442;52.362;-1.302;2023-07-02T12:19:14;4.53;;;1.40;;
48651;SDS011;34442;52.362;-1.302;2023-07-02T12:21:39;4.55;;;1.50;;
48651;SDS011;34442;52.362;-1.302;2023-07-02T12:24:04;2.85;;;1.10;;
48651;SDS011;34442;52.362;-1.302;2023-07-02T12:26:34;3.20;;;1.30;;
48651;SDS011;34442;52.362;-1.302;2023-07-02T12:29:00;3.45;;;1.17;;
48651;SDS011;34442;52.362;-1.302;2023-07-02T12:31:29;3.38;;;1.42;;
48651;SDS011;34442;52.362;-1.302;2023-07-02T12:33:55;4.07;;;1.25;;
48651;SDS011;34442;52.362;-1.302;2023-07-02T12:36:20;3.28;;;1.20;;
48651;SDS011;34442;52.362;-1.302;2023-07-02T12:38:48;3.20;;;1.13;;
48651;SDS011;34442;52.362;-1.302;2023-07-02T12:41:14;1.98;;;1.00;;
48651;SDS011;34442;52.362;-1.302;2023-07-02T12:43:39;3.05;;;1.20;;
48651;SDS011;34442;52.362;-1.302;2023-07-02T12:46:05;2.85;;;1.10;;
48651;SDS011;34442;52.362;-1.302;2023-07-02T12:48:31;2.55;;;1.17;;
48651;SDS011;34442;52.362;-1.302;2023-07-02T12:50:57;3.83;;;1.33;;
48651;SDS011;34442;52.362;-1.302;2023-07-02T12:53:24;2.65;;;1.10;;
48651;SDS011;34442;52.362;-1.302;2023-07-02T12:55:50;4.93;;;1.45;;
48651;SDS011;34442;52.362;-1.302;2023-07-02T12:58:16;2.45;;;1.23;;
48651;SDS011;34442;52.362;-1.302;2023-07-02T13:00:42;3.08;;;1.27;;
48651;SDS011;34442;52.362;-1.302;2023-07-02T13:03:11;2.80;;;1.10;;
48651;SDS011;34442;52.362;-1.302;2023-07-02T13:05:38;2.05;;;0.88;;
48651;SDS011;34442;52.362;-1.302;2023-07-02T13:08:04;3.20;;;1.17;;
48651;SDS011;34442;52.362;-1.302;2023-07-02T13:10:30;1.75;;;0.98;;
48651;SDS011;34442;52.362;-1.302;2023-07-02T13:12:56;3.03;;;1.30;;
48651;SDS011;34442;52.362;-1.302;2023-07-02T13:15:22;1.65;;;0.90;;
48651;SDS011;34442;52.362;-1.302;2023-07-02T13:17:47;3.40;;;1.15;;
48651;SDS011;34442;52.362;-1.302;2023-07-02T13:20:13;2.35;;;1.08;;
48651;SDS011;34442;52.362;-1.302;2023-07-02T13:22:39;3.42;;;0.95;;
48651;SDS011;34442;52.362;-1.302;2023-07-02T13:25:05;3.15;;;1.17;;
48651;SDS011;34442;52.362;-1.302;2023-07-02T13:27:31;2.40;;;1.50;;
48651;SDS011;34442;52.362;-1.302;2023-07-02T13:30:00;4.53;;;1.17;;
48651;SDS011;34442;52.362;-1.302;2023-07-02T13:32:25;3.78;;;1.35;;
48651;SDS011;34442;52.362;-1.302;2023-07-02T13:34:51;2.22;;;1.10;;
48651;SDS011;34442;52.362;-1.302;2023-07-02T13:37:17;3.67;;;1.15;;
48651;SDS011;34442;52.362;-1.302;2023-07-02T13:39:45;3.92;;;1.10;;
48651;SDS011;34442;52.362;-1.302;2023-07-02T13:42:12;2.95;;;1.17;;
48651;SDS011;34442;52.362;-1.302;2023-07-02T13:44:37;3.88;;;1.63;;
48651;SDS011;34442;52.362;-1.302;2023-07-02T13:47:03;4.32;;;1.33;;
48651;SDS011;34442;52.362;-1.302;2023-07-02T13:49:32;2.83;;;1.20;;
48651;SDS011;34442;52.362;-1.302;2023-07-02T13:52:01;3.00;;;1.20;;
48651;SDS011;34442;52.362;-1.302;2023-07-02T13:54:30;2.17;;;0.90;;
48651;SDS011;34442;52.362;-1.302;2023-07-02T13:56:58;3.22;;;1.13;;
48651;SDS011;34442;52.362;-1.302;2023-07-02T13:59:24;3.08;;;1.52;;
48651;SDS011;34442;52.362;-1.302;2023-07-02T14:01:49;2.35;;;0.98;;
48651;SDS011;34442;52.362;-1.302;2023-07-02T14:04:16;2.63;;;1.05;;
48651;SDS011;34442;52.362;-1.302;2023-07-02T14:06:46;3.17;;;1.27;;
48651;SDS011;34442;52.362;-1.302;2023-07-02T14:09:11;4.50;;;1.42;;
48651;SDS011;34442;52.362;-1.302;2023-07-02T14:11:38;1.88;;;0.95;;
48651;SDS011;34442;52.362;-1.302;2023-07-02T14:14:06;2.00;;;1.15;;
48651;SDS011;34442;52.362;-1.302;2023-07-02T14:16:32;3.05;;;1.38;;
48651;SDS011;34442;52.362;-1.302;2023-07-02T14:18:57;2.00;;;1.02;;
48651;SDS011;34442;52.362;-1.302;2023-07-02T14:21:23;5.50;;;1.67;;
48651;SDS011;34442;52.362;-1.302;2023-07-02T14:23:51;3.35;;;1.40;;
48651;SDS011;34442;52.362;-1.302;2023-07-02T14:26:16;4.45;;;1.30;;
48651;SDS011;34442;52.362;-1.302;2023-07-02T14:28:45;3.63;;;1.38;;
48651;SDS011;34442;52.362;-1.302;2023-07-02T14:31:10;3.40;;;1.00;;
48651;SDS011;34442;52.362;-1.302;2023-07-02T14:33:37;4.10;;;1.30;;
48651;SDS011;34442;52.362;-1.302;2023-07-02T14:36:03;3.20;;;1.92;;